Chadstone Weather > Observations for 16/09/20

Select Day:



Observations
Time Temp Hum DP Wind Gust Dir Rain >9am Press
C % C kph kph mm hPa
00:00 9.2 88 7.3 0.0 0.0 N 0.0 1030.8
00:10 9.1 88 7.2 0.0 0.0 N 0.0 1030.7
00:20 9.0 88 7.1 0.0 0.0 N 0.0 1030.6
00:30 8.9 89 7.2 0.0 0.0 N 0.0 1030.5
00:40 8.8 89 7.1 0.0 0.0 N 0.0 1030.3
00:50 8.7 89 7.0 0.0 0.0 N 0.0 1030.3
01:00 8.6 89 6.9 0.0 0.0 N 0.0 1030.3
01:10 8.6 89 6.9 0.0 0.0 N 0.0 1030.1
01:20 8.8 90 7.3 0.0 0.0 N 0.0 1029.9
01:30 8.9 90 7.4 0.0 0.0 N 0.0 1029.6
01:40 9.0 89 7.3 0.0 0.0 N 0.0 1029.5
01:50 9.2 90 7.6 0.0 0.0 N 0.0 1029.5
02:00 9.3 91 7.9 0.0 0.0 N 0.0 1029.4
02:10 9.4 91 8.0 0.0 0.0 N 0.0 1029.3
02:20 9.3 91 7.9 0.0 0.0 N 0.0 1029.0
02:30 9.3 91 7.9 0.0 0.0 N 0.0 1028.8
02:40 9.3 92 8.1 0.0 0.0 N 0.0 1028.1
02:50 9.1 91 7.7 0.0 0.0 N 0.0 1027.7
03:00 9.1 91 7.7 0.0 0.0 N 0.0 1027.5
03:10 9.1 91 7.7 0.0 0.0 N 0.0 1027.3
03:20 9.1 92 7.9 0.0 0.0 N 0.0 1027.1
03:30 9.1 92 7.9 0.0 0.0 N 0.0 1027.0
03:40 8.9 93 7.8 0.0 0.0 N 0.0 1027.1
03:50 8.9 93 7.8 0.0 0.0 N 0.0 1027.1
04:00 8.9 93 7.8 0.0 0.0 N 0.0 1026.9
04:10 8.8 92 7.6 0.0 0.0 N 0.0 1027.0
04:20 8.7 92 7.5 0.0 0.0 N 0.0 1026.9
04:30 8.7 92 7.5 0.0 0.0 N 0.0 1026.7
04:40 8.6 92 7.4 0.0 0.0 N 0.0 1026.6
04:50 8.5 92 7.3 0.0 0.0 N 0.0 1026.5
05:00 8.5 92 7.3 0.0 0.0 N 0.0 1026.4
05:10 8.4 92 7.2 0.0 0.0 N 0.0 1026.4
05:20 8.3 91 6.9 0.0 0.0 N 0.0 1026.3
05:30 8.4 92 7.2 0.0 0.0 N 0.0 1026.3
05:40 8.5 92 7.3 0.0 0.0 N 0.0 1026.5
05:50 8.6 92 7.4 0.0 0.0 N 0.0 1026.4
06:00 8.6 91 7.2 0.0 0.0 N 0.0 1026.5
06:10 8.6 91 7.2 0.0 0.0 N 0.0 1026.5
06:20 8.6 91 7.2 0.0 0.0 N 0.0 1026.4
06:30 8.8 91 7.4 0.0 0.0 N 0.0 1026.3
06:40 9.2 90 7.6 0.0 0.0 N 0.0 1026.5
06:50 9.5 89 7.8 0.0 0.0 N 0.0 1026.4
07:00 9.7 88 7.8 0.0 0.0 N 0.0 1026.4
07:10 10.0 86 7.8 0.0 0.0 N 0.0 1026.5
07:20 10.1 86 7.9 0.0 0.0 N 0.0 1026.6
07:30 10.5 85 8.1 0.0 0.0 N 0.0 1026.7
07:40 10.9 84 8.3 0.0 0.0 N 0.0 1026.8
07:50 11.5 82 8.5 0.0 0.0 N 0.0 1026.8
08:00 12.0 81 8.8 4.6 13.3 NNW 0.0 1027.0
08:10 12.6 78 8.9 7.4 13.3 NNW 0.0 1026.7
08:20 13.0 76 8.9 7.5 15.8 NNW 0.0 1026.6
08:30 13.5 75 9.2 10.3 18.4 N 0.0 1026.6
08:40 13.9 73 9.1 9.9 18.4 NNW 0.0 1026.4
08:50 14.4 71 9.2 10.2 18.4 NNW 0.0 1026.3
09:00 14.9 69 9.3 13.1 31.7 NNW 0.0 1026.2
09:10 15.3 66 9.0 18.0 31.7 NW 0.0 1026.2
09:20 15.7 65 9.1 10.2 23.4 NNW 0.0 1026.2
09:30 16.2 63 9.2 15.9 34.2 NNW 0.0 1026.2
09:40 16.5 61 9.0 16.2 34.2 NNW 0.0 1026.2
09:50 16.7 59 8.7 15.9 30.6 NNW 0.0 1026.0
10:00 16.9 56 8.1 18.4 33.1 NNW 0.0 1025.9
10:10 17.3 54 7.9 17.1 35.6 NNW 0.0 1025.7
10:20 17.7 53 8.0 14.7 31.7 NNW 0.0 1025.5
10:30 18.0 51 7.7 17.2 34.2 NW 0.0 1025.3
10:40 18.3 51 8.0 20.1 36.7 NW 0.0 1025.2
10:50 18.7 50 8.1 16.5 33.1 NNW 0.0 1025.0
11:00 18.9 48 7.7 18.4 39.2 NNW 0.0 1024.9
11:10 18.9 49 8.0 17.8 41.8 NNW 0.0 1024.6
11:20 19.2 47 7.6 17.7 33.1 WNW 0.0 1024.2
11:30 19.6 46 7.7 19.9 34.2 NW 0.0 1024.1
11:40 20.0 44 7.4 17.1 34.2 NNW 0.0 1023.8
11:50 20.4 44 7.7 14.9 41.8 NNW 0.0 1023.7
12:00 20.6 44 7.9 18.7 37.8 NW 0.0 1023.6
12:10 20.8 44 8.1 18.6 33.1 N 0.0 1024.2
12:20 20.7 44 8.0 17.5 29.5 N 0.0 1024.0
12:30 20.8 43 7.8 18.5 35.6 NNW 0.0 1023.9
12:40 20.9 44 8.2 18.3 40.3 NNW 0.0 1023.9
12:50 21.1 43 8.0 16.8 29.5 N 0.0 1023.9
13:00 21.1 44 8.4 15.8 28.1 NNW 0.0 1023.6
13:10 21.3 43 8.2 18.9 35.6 NNW 0.0 1023.3
13:20 21.4 42 8.0 19.1 35.6 NNW 0.0 1023.4
13:30 21.6 43 8.5 19.3 33.1 NNW 0.0 1023.5
13:40 21.5 44 8.7 17.7 41.8 NNW 0.0 1023.2
13:50 21.8 44 9.0 12.8 30.6 NNW 0.0 1022.7
14:00 22.0 43 8.9 14.3 28.1 N 0.0 1022.7
14:10 22.1 43 8.9 14.5 30.6 NW 0.0 1022.6
14:20 22.3 42 8.8 13.9 31.7 NNW 0.0 1022.5
14:30 22.6 41 8.7 15.0 28.1 NW 0.0 1022.6
14:40 22.8 38 7.8 15.4 31.7 NW 0.0 1022.8
14:50 22.3 39 7.7 15.2 29.5 NNW 0.0 1022.7
15:00 22.2 38 7.2 17.1 29.5 NW 0.0 1022.6
15:10 22.0 40 7.8 14.0 29.5 NW 0.0 1022.5
15:20 22.0 41 8.2 13.1 29.5 NNW 0.0 1022.5
15:30 21.7 42 8.2 13.1 28.1 NW 0.0 1022.6
15:40 21.6 42 8.2 11.8 27.0 NNW 0.0 1022.7
15:50 21.5 42 8.1 14.2 30.6 NW 0.0 1023.0
16:00 21.3 43 8.2 11.3 27.0 NW 0.0 1023.0
16:10 21.3 43 8.2 11.3 27.0 NNW 0.0 1023.2
16:20 21.3 44 8.6 11.2 20.9 NNW 0.0 1023.1
16:30 21.2 44 8.5 9.4 19.4 NW 0.0 1023.3
16:40 21.2 44 8.5 11.1 20.9 NNW 0.0 1023.4
16:50 21.1 45 8.7 10.8 28.1 NNW 0.0 1023.3
17:00 21.1 45 8.7 9.8 23.4 NNW 0.0 1023.2
17:10 21.1 45 8.7 12.9 19.4 NNW 0.0 1023.1
17:20 21.0 45 8.6 10.6 17.3 N 0.0 1023.2
17:30 20.9 47 9.2 9.4 17.3 N 0.0 1023.2
17:40 20.6 47 8.9 7.0 15.8 NNW 0.0 1023.2
17:50 20.5 47 8.8 7.0 13.3 N 0.0 1023.2
18:00 20.3 48 8.9 8.3 13.3 NW 0.0 1023.1
18:10 20.1 48 8.8 8.0 14.8 NNW 0.0 1023.1
18:20 19.9 50 9.2 6.4 12.2 NNW 0.0 1023.5
18:30 19.6 51 9.2 4.7 9.7 NW 0.0 1023.1
18:40 19.3 52 9.2 3.4 7.2 NW 0.0 1023.3
18:50 19.0 54 9.5 1.7 5.0 NNW 0.0 1022.9
19:00 18.6 56 9.7 2.7 6.1 NNE 0.0 1022.7
19:10 18.2 57 9.6 1.6 5.0 NNE 0.0 1022.6
19:20 18.1 56 9.2 4.6 8.6 NNW 0.0 1022.6
19:30 18.1 56 9.2 4.4 8.6 NNW 0.0 1022.7
19:40 17.8 57 9.2 3.6 7.2 WNW 0.0 1022.8
19:50 17.6 58 9.2 2.9 7.2 WNW 0.0 1023.0
20:00 17.3 58 9.0 3.3 8.6 NW 0.0 1022.9
20:10 17.2 59 9.1 3.3 7.2 NNW 0.0 1023.0
20:20 17.1 59 9.0 2.4 5.0 NNW 0.0 1023.0
20:30 17.0 60 9.2 2.3 5.0 NNW 0.0 1023.0
20:40 16.5 62 9.2 2.3 6.1 N 0.0 1023.1
20:50 16.4 62 9.1 3.3 8.6 N 0.0 1023.2
21:00 16.4 62 9.1 4.4 8.6 N 0.0 1023.3
21:10 16.3 62 9.0 1.3 6.1 N 0.0 1023.3
21:20 15.9 63 8.9 0.3 2.5 N 0.0 1023.2
21:30 15.4 64 8.6 0.4 2.5 N 0.0 1023.3
21:40 15.0 65 8.5 1.2 3.6 N 0.0 1023.5
21:50 14.8 67 8.7 1.2 3.6 SSW 0.0 1023.9
22:00 15.0 66 8.7 2.0 9.7 SW 0.0 1023.7
22:10 15.0 66 8.7 3.2 8.6 WNW 0.0 1023.8
22:20 15.2 66 8.9 2.7 8.6 NW 0.0 1024.0
22:30 15.0 65 8.5 2.1 6.1 WSW 0.0 1024.0
22:40 14.9 67 8.8 0.1 3.6 W 0.0 1024.1
22:50 14.8 68 9.0 0.0 2.5 SW 0.0 1024.2
23:00 14.6 69 9.0 0.0 2.5 SW 0.0 1024.4
23:10 14.4 72 9.4 0.1 3.6 SW 0.0 1024.6
23:20 14.2 74 9.6 0.3 3.6 SW 0.0 1024.7
23:30 14.1 74 9.5 0.3 2.5 SW 0.0 1024.8
23:40 13.9 76 9.7 0.7 2.5 SSW 0.0 1024.9
23:50 13.7 76 9.6 0.4 2.5 S 0.0 1024.9